Time;durP1;ratioP1;P1;durP2;ratioP2;P2;SDS_P1;SDS_P2;PMS_P1;PMS_P2;Temp;Humidity;BMP_temperature;BMP_pressure;BME280_temperature;BME280_humidity;BME280_pressure;Samples;Min_cycle;Max_cycle;Signal;HPM_P1;HPM_P2
2021/06/28 00:00:39;;;;;;;1.42;1.10;;;13.80;91.30;;;;;;4995849;28;20092;-78
2021/06/28 00:03:04;;;;;;;1.88;1.27;;;13.80;91.60;;;;;;4978209;28;20085;-78
2021/06/28 00:05:30;;;;;;;1.83;1.73;;;13.70;91.90;;;;;;4995294;28;20034;-77
2021/06/28 00:07:56;;;;;;;4.82;1.58;;;13.70;92.10;;;;;;4995698;28;20025;-77
2021/06/28 00:10:24;;;;;;;1.08;1.00;;;13.60;92.40;;;;;;4995483;28;20463;-78
2021/06/28 00:12:52;;;;;;;6.63;1.80;;;13.60;92.60;;;;;;4995256;28;20033;-79
2021/06/28 00:15:24;;;;;;;1.65;1.30;;;13.60;92.80;;;;;;4995227;28;20033;-79
2021/06/28 00:17:51;;;;;;;1.38;1.00;;;13.60;93.00;;;;;;4995530;28;20038;-79
2021/06/28 00:20:18;;;;;;;1.58;1.45;;;13.50;93.30;;;;;;4995053;28;20034;-79
2021/06/28 00:22:45;;;;;;;6.47;1.30;;;13.50;93.70;;;;;;4995554;28;20025;-79
2021/06/28 00:25:13;;;;;;;1.38;1.20;;;13.50;93.90;;;;;;4995547;28;20077;-78
2021/06/28 00:27:40;;;;;;;1.15;1.05;;;13.50;94.10;;;;;;4994979;28;20057;-78
2021/06/28 00:30:12;;;;;;;1.40;1.10;;;13.50;94.50;;;;;;4995099;28;20106;-78
2021/06/28 00:32:38;;;;;;;1.98;1.50;;;13.40;94.80;;;;;;4994866;28;20053;-78
2021/06/28 00:35:05;;;;;;;2.05;1.00;;;13.40;95.10;;;;;;4995038;28;20065;-77
2021/06/28 00:37:31;;;;;;;1.77;1.20;;;13.40;95.40;;;;;;4994912;28;20058;-78
2021/06/28 00:39:56;;;;;;;2.08;1.20;;;13.30;95.70;;;;;;4994831;28;20073;-78
2021/06/28 00:42:24;;;;;;;4.53;1.10;;;13.30;95.90;;;;;;4994571;28;20574;-78
2021/06/28 00:44:51;;;;;;;4.28;1.30;;;13.30;96.20;;;;;;4994744;28;20054;-76
2021/06/28 00:47:17;;;;;;;2.25;1.17;;;13.30;96.50;;;;;;4994611;28;20052;-76
2021/06/28 00:49:43;;;;;;;1.23;1.13;;;13.20;96.90;;;;;;4994620;28;20065;-76
2021/06/28 00:52:09;;;;;;;2.42;1.00;;;13.20;97.40;;;;;;4993790;28;20062;-76
2021/06/28 00:54:37;;;;;;;1.85;1.08;;;13.10;97.60;;;;;;4994415;28;20030;-76
2021/06/28 00:57:03;;;;;;;2.72;1.17;;;13.10;97.90;;;;;;4994501;28;20061;-76
2021/06/28 00:59:31;;;;;;;3.60;1.38;;;13.10;98.30;;;;;;4994415;28;20027;-76
2021/06/28 01:01:58;;;;;;;1.65;1.40;;;13.10;98.50;;;;;;4994646;28;20088;-76
2021/06/28 01:04:24;;;;;;;2.38;1.20;;;13.10;99.00;;;;;;4994277;28;20030;-76
2021/06/28 01:06:50;;;;;;;6.90;1.30;;;13.00;99.10;;;;;;4994276;28;20363;-76
2021/06/28 01:09:16;;;;;;;2.58;1.10;;;13.00;99.40;;;;;;4994216;28;20390;-75
2021/06/28 01:11:42;;;;;;;1.40;1.00;;;13.00;99.60;;;;;;4994056;28;20038;-76
2021/06/28 01:14:08;;;;;;;4.30;1.25;;;12.90;99.90;;;;;;4994393;28;20026;-76
2021/06/28 01:16:34;;;;;;;1.70;1.42;;;12.90;99.90;;;;;;4994293;28;20574;-76
2021/06/28 01:52:39;;;;;;;2.92;1.10;;;12.60;99.90;;;;;;5844842;23;20080;-75
2021/06/28 01:55:08;;;;;;;2.25;1.05;;;12.60;99.90;;;;;;5012182;28;20030;-74
2021/06/28 01:57:42;;;;;;;2.28;1.00;;;12.60;99.90;;;;;;5013373;28;20018;-75
2021/06/28 02:00:09;;;;;;;3.03;1.05;;;12.60;99.90;;;;;;5012994;28;20555;-76
2021/06/28 02:02:34;;;;;;;2.25;1.10;;;12.50;99.90;;;;;;5012098;28;20033;-76
2021/06/28 02:05:00;;;;;;;2.55;0.95;;;12.50;99.90;;;;;;5012973;28;20021;-76
2021/06/28 02:07:26;;;;;;;2.38;1.10;;;12.50;99.90;;;;;;5011568;28;20386;-76
2021/06/28 02:09:52;;;;;;;1.30;1.02;;;12.50;99.90;;;;;;5012918;28;20062;-77
2021/06/28 02:12:18;;;;;;;3.70;1.10;;;12.50;99.90;;;;;;5012879;28;20032;-76
2021/06/28 02:14:44;;;;;;;0.80;0.80;;;12.50;99.90;;;;;;5012583;28;20444;-77
2021/06/28 02:17:09;;;;;;;1.00;0.90;;;12.50;99.90;;;;;;5012731;28;20018;-77
2021/06/28 02:19:35;;;;;;;1.55;1.00;;;12.50;99.90;;;;;;5012738;28;20125;-77
2021/06/28 02:22:01;;;;;;;2.03;1.10;;;12.50;99.90;;;;;;5012547;28;20037;-75
2021/06/28 02:24:27;;;;;;;3.05;1.10;;;12.50;99.90;;;;;;5012510;28;20093;-75
2021/06/28 02:26:53;;;;;;;2.60;1.52;;;12.50;99.90;;;;;;5012430;28;20527;-75
2021/06/28 02:29:19;;;;;;;1.00;0.90;;;12.50;99.90;;;;;;5012537;28;20026;-75
2021/06/28 02:31:45;;;;;;;2.35;1.02;;;12.50;99.90;;;;;;5012434;28;20038;-75
2021/06/28 02:34:11;;;;;;;1.73;0.93;;;12.50;99.90;;;;;;5011213;28;20054;-75
2021/06/28 02:36:37;;;;;;;1.95;0.98;;;12.50;99.90;;;;;;5012526;28;20029;-75
2021/06/28 02:39:06;;;;;;;1.60;0.95;;;12.50;99.90;;;;;;5012462;28;20030;-75
2021/06/28 02:41:32;;;;;;;2.28;1.10;;;12.60;99.90;;;;;;5012729;28;20080;-76
2021/06/28 02:43:58;;;;;;;1.58;1.10;;;12.60;99.90;;;;;;5012270;28;20022;-77
2021/06/28 02:46:24;;;;;;;2.10;1.20;;;12.60;99.90;;;;;;5012637;28;20022;-76
2021/06/28 02:48:50;;;;;;;4.00;1.00;;;12.70;99.90;;;;;;5012184;28;20492;-76
2021/06/28 02:51:19;;;;;;;1.17;0.95;;;12.80;99.90;;;;;;5012330;28;20022;-76
2021/06/28 02:53:45;;;;;;;2.55;1.33;;;12.90;99.90;;;;;;4997972;28;20046;-76
2021/06/28 02:56:15;;;;;;;2.63;1.20;;;13.10;99.90;;;;;;4992750;28;20036;-76
2021/06/28 02:58:42;;;;;;;2.05;1.08;;;13.40;99.90;;;;;;4992844;28;20022;-76
2021/06/28 03:01:09;;;;;;;1.05;0.90;;;13.60;99.90;;;;;;4992984;28;20072;-76
2021/06/28 03:03:35;;;;;;;3.75;1.10;;;13.70;99.90;;;;;;4992637;28;20033;-76
2021/06/28 03:06:00;;;;;;;2.83;1.10;;;13.70;99.90;;;;;;4992517;28;20031;-76
2021/06/28 03:08:26;;;;;;;2.40;1.13;;;13.70;99.90;;;;;;4992569;28;20019;-76
2021/06/28 03:10:52;;;;;;;6.88;1.65;;;13.70;99.90;;;;;;4992433;28;20026;-76
2021/06/28 03:13:18;;;;;;;1.77;1.02;;;13.70;99.90;;;;;;4992569;28;20030;-76
2021/06/28 03:15:43;;;;;;;1.70;1.10;;;13.80;99.90;;;;;;4996243;28;20029;-76
2021/06/28 03:18:09;;;;;;;5.28;1.02;;;13.70;99.90;;;;;;4996794;28;20061;-76
2021/06/28 03:20:36;;;;;;;1.23;0.80;;;13.80;99.90;;;;;;4996316;28;20490;-75
2021/06/28 03:23:02;;;;;;;1.23;0.98;;;14.10;99.90;;;;;;4996149;28;20390;-75
2021/06/28 03:25:28;;;;;;;4.40;1.10;;;14.60;99.50;;;;;;4996320;28;20031;-75
2021/06/28 03:27:53;;;;;;;4.15;1.08;;;15.10;98.10;;;;;;4996069;28;20030;-78
2021/06/28 03:30:19;;;;;;;1.33;0.90;;;15.50;96.50;;;;;;4996475;28;20038;-78
2021/06/28 03:32:45;;;;;;;2.45;1.17;;;15.90;95.30;;;;;;4996307;28;20500;-75
2021/06/28 03:35:12;;;;;;;2.42;1.13;;;16.30;93.70;;;;;;4996018;28;20053;-76
2021/06/28 03:37:39;;;;;;;3.28;0.70;;;16.60;92.40;;;;;;4996055;28;20026;-76
2021/06/28 03:40:07;;;;;;;2.13;0.85;;;16.90;90.90;;;;;;4995746;28;20074;-74
2021/06/28 03:42:35;;;;;;;1.75;0.88;;;17.20;89.90;;;;;;4995958;28;20037;-74
2021/06/28 03:45:01;;;;;;;2.90;0.77;;;17.50;87.70;;;;;;4995806;28;20028;-73
2021/06/28 03:47:27;;;;;;;2.42;1.10;;;17.60;86.30;;;;;;4995937;28;20032;-73
2021/06/28 03:49:52;;;;;;;2.58;0.93;;;17.90;84.00;;;;;;4995981;28;20022;-74
2021/06/28 03:52:18;;;;;;;0.65;0.65;;;18.30;81.90;;;;;;4995589;28;20489;-74
2021/06/28 03:54:44;;;;;;;1.73;0.70;;;18.60;79.60;;;;;;4995715;28;20046;-74
2021/06/28 03:57:09;;;;;;;8.55;1.67;;;18.80;77.70;;;;;;4995656;28;20433;-75
2021/06/28 03:59:35;;;;;;;2.38;0.88;;;19.10;75.80;;;;;;4995829;28;20091;-75
2021/06/28 04:02:01;;;;;;;2.83;1.00;;;19.30;74.60;;;;;;4995600;28;20026;-75
2021/06/28 04:04:28;;;;;;;1.45;0.68;;;19.50;73.50;;;;;;4995533;28;20034;-75
2021/06/28 04:06:53;;;;;;;4.00;0.98;;;19.70;72.20;;;;;;4995420;28;20030;-75
2021/06/28 04:09:19;;;;;;;1.40;1.00;;;19.90;71.30;;;;;;4995465;28;20146;-75
2021/06/28 04:11:45;;;;;;;2.50;1.15;;;20.10;70.10;;;;;;4995457;28;20034;-75
2021/06/28 04:14:12;;;;;;;5.03;0.93;;;20.30;68.80;;;;;;4995440;28;20030;-75
2021/06/28 04:16:38;;;;;;;2.03;0.82;;;20.40;68.20;;;;;;4995472;28;20027;-76
2021/06/28 04:19:04;;;;;;;1.52;1.05;;;20.60;67.00;;;;;;4995329;28;20030;-76
2021/06/28 04:21:34;;;;;;;5.38;1.08;;;20.70;66.90;;;;;;4995312;28;20509;-77
2021/06/28 04:24:03;;;;;;;3.85;1.10;;;20.90;65.90;;;;;;4995547;28;20466;-78
2021/06/28 04:26:29;;;;;;;1.13;0.80;;;21.00;65.20;;;;;;4994237;28;20502;-77
2021/06/28 04:28:56;;;;;;;0.80;0.73;;;21.20;64.10;;;;;;4995001;28;20041;-76
2021/06/28 04:31:21;;;;;;;6.45;1.55;;;21.40;63.40;;;;;;4993884;28;20026;-72
2021/06/28 04:33:47;;;;;;;3.33;0.90;;;21.40;62.40;;;;;;4994887;28;20081;-73
2021/06/28 04:36:13;;;;;;;2.78;0.80;;;21.50;62.40;;;;;;4995118;28;20089;-71
2021/06/28 04:38:39;;;;;;;3.03;1.00;;;21.70;61.50;;;;;;4995324;28;20030;-76
2021/06/28 04:41:05;;;;;;;2.03;1.08;;;21.80;61.10;;;;;;4994891;28;20478;-73
2021/06/28 04:43:30;;;;;;;3.30;1.00;;;21.90;60.30;;;;;;4994859;28;20062;-74
2021/06/28 04:45:56;;;;;;;1.70;0.90;;;21.90;59.70;;;;;;4994721;28;20058;-72
2021/06/28 04:48:22;;;;;;;3.92;1.00;;;21.90;59.80;;;;;;4994728;28;20034;-77
2021/06/28 04:50:48;;;;;;;2.65;1.00;;;22.10;59.30;;;;;;4994877;28;20022;-74
2021/06/28 04:53:14;;;;;;;1.88;1.30;;;22.20;59.40;;;;;;4994452;28;20402;-73
2021/06/28 04:55:40;;;;;;;3.03;0.70;;;22.40;59.80;;;;;;4994688;28;20029;-75
2021/06/28 04:58:06;;;;;;;1.58;0.70;;;22.60;57.90;;;;;;4994607;28;20030;-72
2021/06/28 05:00:32;;;;;;;3.50;1.08;;;22.70;57.60;;;;;;4994302;28;20092;-73
2021/06/28 05:02:58;;;;;;;2.72;0.85;;;22.70;56.20;;;;;;4994374;28;20061;-72
2021/06/28 05:05:24;;;;;;;4.32;1.10;;;22.70;56.40;;;;;;4994406;28;20031;-72
2021/06/28 05:07:50;;;;;;;1.95;0.90;;;22.70;55.80;;;;;;4994241;28;20035;-72
2021/06/28 05:10:16;;;;;;;1.33;0.80;;;22.80;56.30;;;;;;4995814;28;20033;-71
2021/06/28 05:12:42;;;;;;;2.15;1.00;;;22.90;56.50;;;;;;4994464;28;20022;-71
2021/06/28 05:15:10;;;;;;;2.50;0.90;;;23.00;55.90;;;;;;4994047;28;20109;-71
2021/06/28 05:17:36;;;;;;;3.33;0.88;;;23.20;55.70;;;;;;4994094;28;20104;-71
2021/06/28 05:20:04;;;;;;;7.63;1.00;;;23.40;55.10;;;;;;4993923;28;20170;-72
2021/06/28 05:22:30;;;;;;;2.15;0.85;;;23.40;54.60;;;;;;4994113;28;20029;-72
2021/06/28 05:24:56;;;;;;;1.00;0.82;;;23.60;54.10;;;;;;4993887;28;20026;-74
2021/06/28 05:27:22;;;;;;;1.67;0.90;;;23.70;53.80;;;;;;4991242;28;20486;-74
2021/06/28 05:29:54;;;;;;;2.80;0.90;;;23.70;53.10;;;;;;4974445;28;20033;-74
2021/06/28 05:32:21;;;;;;;3.35;1.35;;;23.70;53.20;;;;;;4974576;28;20031;-74
2021/06/28 05:34:48;;;;;;;2.58;0.75;;;23.70;52.50;;;;;;4974699;28;20031;-74
2021/06/28 05:37:13;;;;;;;1.25;0.90;;;23.70;52.80;;;;;;4974264;28;20030;-74
2021/06/28 05:39:39;;;;;;;2.35;1.30;;;23.90;52.20;;;;;;4974463;28;20043;-74
2021/06/28 05:42:05;;;;;;;1.55;0.90;;;24.00;52.60;;;;;;4974452;28;20034;-74
2021/06/28 05:44:31;;;;;;;2.70;1.30;;;24.10;52.00;;;;;;4972950;28;20130;-74
2021/06/28 05:46:56;;;;;;;2.30;0.98;;;24.20;51.80;;;;;;4974178;28;20029;-74
2021/06/28 05:49:22;;;;;;;5.07;0.98;;;24.20;51.40;;;;;;4974080;28;20023;-74
2021/06/28 05:51:48;;;;;;;1.92;0.90;;;24.30;51.70;;;;;;4973925;28;20034;-74
2021/06/28 05:54:13;;;;;;;2.35;0.90;;;24.40;51.20;;;;;;4973846;28;20050;-74
2021/06/28 05:56:39;;;;;;;4.40;1.98;;;24.20;50.40;;;;;;4974454;28;20398;-75
2021/06/28 05:59:05;;;;;;;5.07;1.00;;;24.10;50.50;;;;;;4973906;28;20494;-74
2021/06/28 06:01:31;;;;;;;8.98;0.93;;;24.10;50.90;;;;;;4974111;28;20482;-74
2021/06/28 06:03:56;;;;;;;1.50;0.90;;;24.20;51.00;;;;;;4973880;28;20033;-73
2021/06/28 06:06:23;;;;;;;0.90;0.80;;;24.40;50.50;;;;;;4973845;28;20034;-73
2021/06/28 06:08:48;;;;;;;2.20;0.90;;;24.30;50.30;;;;;;4974000;28;20023;-76
2021/06/28 06:11:14;;;;;;;2.55;0.75;;;24.40;50.30;;;;;;4973906;28;20037;-77
2021/06/28 06:13:40;;;;;;;3.55;1.30;;;24.40;50.00;;;;;;4973772;28;20023;-78
2021/06/28 06:16:06;;;;;;;6.18;1.08;;;24.30;50.10;;;;;;4973587;28;20034;-72
2021/06/28 06:18:32;;;;;;;6.57;1.00;;;24.30;50.30;;;;;;4973938;28;20029;-73
2021/06/28 06:20:58;;;;;;;3.92;1.00;;;24.30;49.70;;;;;;4973429;28;20034;-73
2021/06/28 06:23:23;;;;;;;2.95;0.80;;;24.40;50.30;;;;;;4973847;28;20109;-74
2021/06/28 06:25:49;;;;;;;5.40;0.85;;;24.60;49.90;;;;;;4973763;28;20033;-73
2021/06/28 06:28:15;;;;;;;1.58;0.88;;;24.70;50.10;;;;;;4973412;28;20439;-73
2021/06/28 06:30:42;;;;;;;2.63;1.30;;;24.80;50.30;;;;;;4973381;28;20517;-73
2021/06/28 06:33:08;;;;;;;3.95;1.40;;;24.90;49.20;;;;;;4973659;28;20057;-74
2021/06/28 06:35:34;;;;;;;1.13;0.82;;;24.80;48.80;;;;;;4973720;28;20439;-74
2021/06/28 06:38:00;;;;;;;2.22;1.00;;;24.70;48.00;;;;;;4973286;28;20109;-74
2021/06/28 06:40:28;;;;;;;3.83;1.00;;;24.60;48.10;;;;;;4973538;28;20042;-74
2021/06/28 06:42:54;;;;;;;1.58;0.88;;;24.50;47.40;;;;;;4973263;28;20027;-74
2021/06/28 06:45:21;;;;;;;2.65;1.00;;;24.30;47.90;;;;;;4973275;28;20081;-72
2021/06/28 06:47:47;;;;;;;1.95;0.90;;;24.10;48.60;;;;;;4973607;28;20034;-72
2021/06/28 06:50:15;;;;;;;3.95;1.05;;;24.10;48.70;;;;;;4972839;28;20395;-72
2021/06/28 06:52:42;;;;;;;3.33;1.60;;;24.00;49.10;;;;;;4972972;28;20043;-72
2021/06/28 06:55:09;;;;;;;1.20;0.88;;;23.80;49.20;;;;;;4972908;28;20526;-72
2021/06/28 06:57:36;;;;;;;1.80;0.82;;;23.70;49.50;;;;;;4973067;28;20039;-72
2021/06/28 07:00:05;;;;;;;3.13;1.20;;;23.80;50.30;;;;;;4972924;28;20118;-72
2021/06/28 07:02:31;;;;;;;2.30;1.00;;;24.00;49.50;;;;;;4973066;28;20081;-72
2021/06/28 07:04:57;;;;;;;3.83;1.10;;;24.20;50.10;;;;;;4972828;28;20110;-72
2021/06/28 07:07:23;;;;;;;6.45;1.20;;;24.20;49.30;;;;;;4972937;28;20030;-72
2021/06/28 07:09:50;;;;;;;2.13;1.00;;;24.20;49.60;;;;;;4972992;28;20027;-72
2021/06/28 07:12:16;;;;;;;3.97;1.27;;;24.20;49.40;;;;;;4972892;28;20059;-72
2021/06/28 07:14:41;;;;;;;3.13;0.70;;;24.10;49.50;;;;;;4972971;28;20118;-74
2021/06/28 07:17:07;;;;;;;112.30;7.10;;;24.00;49.60;;;;;;4972853;28;20137;-74
2021/06/28 07:19:33;;;;;;;3.45;1.63;;;24.10;49.70;;;;;;4972948;28;20042;-73
2021/06/28 07:21:58;;;;;;;3.38;1.17;;;24.20;49.60;;;;;;4972757;28;20030;-73
2021/06/28 07:24:24;;;;;;;2.70;1.00;;;24.40;50.10;;;;;;4972777;28;20114;-73
2021/06/28 07:26:50;;;;;;;2.83;1.20;;;24.50;49.20;;;;;;4973168;28;20386;-75
2021/06/28 07:29:16;;;;;;;1.77;0.85;;;24.60;49.80;;;;;;4972437;28;20035;-74
2021/06/28 07:31:42;;;;;;;2.65;0.98;;;24.70;49.30;;;;;;4972535;28;20023;-75
2021/06/28 07:34:07;;;;;;;3.22;1.05;;;24.70;49.10;;;;;;4971664;28;20031;-75
2021/06/28 07:36:34;;;;;;;4.13;1.23;;;24.60;48.90;;;;;;4971805;28;20050;-74
2021/06/28 07:39:02;;;;;;;4.25;1.20;;;24.60;49.50;;;;;;4971808;28;20026;-73
2021/06/28 07:41:33;;;;;;;6.43;1.30;;;24.50;49.20;;;;;;4972867;28;20077;-75
2021/06/28 07:44:07;;;;;;;5.30;1.70;;;24.40;50.30;;;;;;4972249;28;20031;-74
2021/06/28 07:46:34;;;;;;;2.88;0.93;;;24.30;50.20;;;;;;4972678;28;20042;-76
2021/06/28 07:49:00;;;;;;;7.15;1.52;;;24.30;49.90;;;;;;4972472;28;20073;-74
2021/06/28 07:51:30;;;;;;;2.63;1.00;;;24.30;50.10;;;;;;4972770;28;20034;-74
2021/06/28 07:53:55;;;;;;;;;;;24.10;50.00;;;;;;4971661;28;20205;-74
2021/06/28 07:56:21;;;;;;;6.38;1.30;;;23.90;49.80;;;;;;4972588;28;20425;-74
2021/06/28 07:58:49;;;;;;;4.70;1.20;;;23.70;50.50;;;;;;4972750;28;20106;-74
2021/06/28 08:01:15;;;;;;;5.38;1.73;;;23.60;51.30;;;;;;4973810;28;20058;-74
2021/06/28 08:03:45;;;;;;;2.65;1.15;;;23.60;50.80;;;;;;4976446;28;20081;-74
2021/06/28 08:06:12;;;;;;;3.97;1.10;;;23.50;50.70;;;;;;4975947;28;20031;-74
2021/06/28 08:08:38;;;;;;;4.07;1.10;;;23.40;50.50;;;;;;4976086;28;20034;-74
2021/06/28 08:11:08;;;;;;;2.85;0.90;;;23.30;50.40;;;;;;4976115;28;20023;-74
2021/06/28 08:13:34;;;;;;;4.70;1.33;;;23.30;50.90;;;;;;4975972;28;20035;-74
2021/06/28 08:16:00;;;;;;;2.47;1.10;;;23.40;51.00;;;;;;4975736;28;20118;-74
2021/06/28 08:18:26;;;;;;;5.57;1.30;;;23.30;50.70;;;;;;4975926;28;20022;-74
2021/06/28 08:20:52;;;;;;;2.45;1.00;;;23.20;49.80;;;;;;4975669;28;20483;-74
2021/06/28 08:23:17;;;;;;;4.13;0.93;;;23.20;50.10;;;;;;4975643;28;20179;-74
2021/06/28 08:25:43;;;;;;;15.18;1.27;;;23.20;50.30;;;;;;4975703;28;20030;-74
2021/06/28 08:28:10;;;;;;;2.28;1.02;;;23.20;51.10;;;;;;4975615;28;20367;-75
2021/06/28 08:30:36;;;;;;;1.85;1.00;;;23.20;51.30;;;;;;4975919;28;20114;-74
2021/06/28 08:33:02;;;;;;;2.97;1.42;;;23.20;51.40;;;;;;4975408;28;20022;-74
2021/06/28 08:35:27;;;;;;;3.85;1.05;;;23.10;51.00;;;;;;4975543;28;20033;-74
2021/06/28 08:37:53;;;;;;;2.38;1.13;;;23.00;51.20;;;;;;4975614;28;20030;-74
2021/06/28 08:40:19;;;;;;;2.85;1.00;;;23.10;51.00;;;;;;4975311;28;20046;-74
2021/06/28 08:42:45;;;;;;;24.70;1.80;;;23.20;50.70;;;;;;4975563;28;20356;-73
2021/06/28 08:45:11;;;;;;;6.25;1.20;;;23.20;51.60;;;;;;4975427;28;20419;-79
2021/06/28 08:47:39;;;;;;;2.25;1.00;;;23.30;52.00;;;;;;4975225;28;20463;-74
2021/06/28 08:50:07;;;;;;;3.00;0.93;;;23.30;50.50;;;;;;4975080;28;20035;-73
2021/06/28 08:52:36;;;;;;;6.32;1.30;;;23.20;50.00;;;;;;4975022;28;20050;-73
2021/06/28 08:55:03;;;;;;;;;;;23.10;51.10;;;;;;4975244;28;20038;-69
2021/06/28 08:57:30;;;;;;;1.73;1.00;;;23.10;51.30;;;;;;4975022;28;19906;-72
2021/06/28 08:59:55;;;;;;;3.40;1.17;;;23.20;51.00;;;;;;4974516;28;20031;-73
2021/06/28 09:02:21;;;;;;;1.95;0.93;;;23.10;51.00;;;;;;4975031;28;20030;-72
2021/06/28 09:05:07;;;;;;;1.80;0.90;;;23.10;51.50;;;;;;4974446;28;20434;-72
2021/06/28 09:07:33;;;;;;;2.22;1.00;;;23.10;51.90;;;;;;4975008;28;20336;-72
2021/06/28 09:09:59;;;;;;;3.80;0.88;;;23.10;51.20;;;;;;4975113;28;20170;-72
2021/06/28 09:12:25;;;;;;;2.83;1.20;;;23.00;51.20;;;;;;4974288;28;20027;-72
2021/06/28 09:14:59;;;;;;;4.82;1.27;;;23.00;51.20;;;;;;4974757;28;20027;-72
2021/06/28 09:17:35;;;;;;;7.38;1.50;;;23.10;51.90;;;;;;4974435;28;20521;-72
2021/06/28 09:20:16;;;;;;;1.98;1.13;;;23.00;50.50;;;;;;4973184;28;20043;-73
2021/06/28 09:22:43;;;;;;;5.13;0.88;;;23.10;50.70;;;;;;4974664;28;20026;-72
2021/06/28 09:25:32;;;;;;;2.97;0.90;;;23.20;49.80;;;;;;4974584;28;20038;-72
2021/06/28 09:27:58;;;;;;;1.55;0.88;;;23.20;49.60;;;;;;4977019;28;20082;-73
2021/06/28 09:30:24;;;;;;;2.17;1.10;;;23.00;49.40;;;;;;4978053;28;20514;-73
2021/06/28 09:32:56;;;;;;;2.22;0.93;;;23.00;50.60;;;;;;4974459;28;20031;-74
2021/06/28 09:35:35;;;;;;;3.92;1.05;;;23.00;49.60;;;;;;4974260;28;20027;-74
2021/06/28 09:38:05;;;;;;;2.70;1.15;;;23.00;51.00;;;;;;4974525;28;20058;-74
2021/06/28 09:40:32;;;;;;;3.47;1.13;;;23.00;49.90;;;;;;4973045;28;20039;-74
2021/06/28 09:42:58;;;;;;;3.50;1.00;;;23.10;49.90;;;;;;4974250;28;20100;-73
2021/06/28 09:45:24;;;;;;;1.77;0.95;;;23.10;49.70;;;;;;4974350;28;20042;-73
2021/06/28 09:47:51;;;;;;;1.52;1.05;;;23.10;49.30;;;;;;4974518;28;20023;-72
2021/06/28 09:50:23;;;;;;;2.30;1.10;;;23.10;49.20;;;;;;4972748;28;20113;-73
2021/06/28 09:52:54;;;;;;;2.80;1.10;;;23.10;49.00;;;;;;4973587;28;20070;-73
2021/06/28 09:55:34;;;;;;;1.58;1.05;;;23.20;48.70;;;;;;4974239;28;20035;-73
2021/06/28 09:58:13;;;;;;;4.45;0.98;;;23.20;49.00;;;;;;4974259;28;20027;-72
2021/06/28 10:00:38;;;;;;;3.08;1.10;;;23.30;49.60;;;;;;4974246;28;20039;-72
2021/06/28 10:03:05;;;;;;;2.47;1.15;;;23.30;49.40;;;;;;4973933;28;20382;-72
2021/06/28 10:05:40;;;;;;;1.38;0.90;;;23.20;50.40;;;;;;4973892;28;20031;-72
2021/06/28 10:08:15;;;;;;;2.03;0.93;;;23.20;49.20;;;;;;4973623;28;20505;-72
2021/06/28 10:10:42;;;;;;;2.53;1.00;;;23.20;49.60;;;;;;4973666;28;20027;-72
2021/06/28 10:13:08;;;;;;;1.75;0.73;;;23.30;49.20;;;;;;4973566;28;20027;-72
2021/06/28 10:15:42;;;;;;;16.83;1.55;;;23.20;50.00;;;;;;4973535;28;20037;-73
2021/06/28 10:18:10;;;;;;;2.63;0.90;;;23.30;49.10;;;;;;4973779;28;20081;-72
2021/06/28 10:20:39;;;;;;;1.35;0.85;;;23.40;48.60;;;;;;4972155;28;20038;-73
2021/06/28 10:23:06;;;;;;;2.30;0.90;;;23.30;49.00;;;;;;4973218;28;20025;-72
2021/06/28 10:25:33;;;;;;;2.15;0.98;;;23.30;49.70;;;;;;4971818;28;20391;-73
2021/06/28 10:28:00;;;;;;;3.53;0.75;;;23.20;50.20;;;;;;4973820;28;20034;-73
2021/06/28 10:30:28;;;;;;;4.50;0.90;;;23.20;49.90;;;;;;4973293;28;20043;-73
2021/06/28 10:33:08;;;;;;;2.47;0.93;;;23.20;48.80;;;;;;4973419;28;20022;-73
2021/06/28 10:35:37;;;;;;;2.10;0.80;;;23.20;49.10;;;;;;4973376;28;20321;-73
2021/06/28 10:38:06;;;;;;;2.22;0.90;;;23.20;49.20;;;;;;4973341;28;20031;-73
2021/06/28 10:40:47;;;;;;;6.70;1.65;;;23.20;49.40;;;;;;4973286;28;20041;-73
2021/06/28 10:43:31;;;;;;;5.80;0.90;;;23.20;48.40;;;;;;4971947;28;20426;-73
2021/06/28 10:45:58;;;;;;;17.27;0.98;;;23.30;49.00;;;;;;4973221;28;20026;-72
2021/06/28 10:48:27;;;;;;;1.83;0.90;;;23.30;49.00;;;;;;4973465;28;20027;-72
2021/06/28 10:51:00;;;;;;;3.15;1.15;;;23.30;48.40;;;;;;4973267;28;20030;-72
2021/06/28 10:53:31;;;;;;;3.47;1.00;;;23.20;49.00;;;;;;4973069;28;20054;-72
2021/06/28 10:56:25;;;;;;;0.93;0.75;;;23.20;48.50;;;;;;4973056;28;20031;-72
2021/06/28 10:59:39;;;;;;;2.55;0.98;;;23.20;48.90;;;;;;4973003;28;20031;-72
2021/06/28 11:02:08;;;;;;;1.50;0.90;;;23.30;47.60;;;;;;4956112;28;20042;-73
2021/06/28 11:04:54;;;;;;;2.58;1.08;;;23.30;47.00;;;;;;4973062;28;20546;-73
2021/06/28 11:07:20;;;;;;;3.50;1.00;;;23.30;47.10;;;;;;4972944;28;20122;-73
2021/06/28 11:09:54;;;;;;;17.45;2.60;;;23.40;47.50;;;;;;4973281;28;20027;-73
2021/06/28 11:12:22;;;;;;;2.45;0.70;;;23.30;46.30;;;;;;4972874;28;20335;-73
2021/06/28 11:15:06;;;;;;;1.60;0.88;;;23.30;45.90;;;;;;4972991;28;20027;-73
2021/06/28 11:17:43;;;;;;;1.27;0.70;;;23.20;44.20;;;;;;4972952;28;20027;-73
2021/06/28 11:20:33;;;;;;;2.22;0.80;;;23.20;46.40;;;;;;4972953;28;20039;-70
2021/06/28 11:23:03;;;;;;;3.83;1.00;;;23.20;46.80;;;;;;4972830;28;20090;-73
2021/06/28 11:25:50;;;;;;;2.03;0.80;;;23.20;47.10;;;;;;4972769;28;20031;-72
2021/06/28 11:28:23;;;;;;;2.58;0.85;;;23.30;47.50;;;;;;4972819;28;20113;-72
2021/06/28 11:31:05;;;;;;;1.95;0.80;;;23.40;47.50;;;;;;4973153;28;20033;-72
2021/06/28 11:33:53;;;;;;;2.05;0.70;;;23.40;49.10;;;;;;4972729;28;20027;-72
2021/06/28 11:36:21;;;;;;;3.05;1.10;;;23.50;46.20;;;;;;4975486;28;20030;-72
2021/06/28 11:38:48;;;;;;;3.60;0.77;;;23.40;45.70;;;;;;4976606;28;20030;-70
2021/06/28 11:41:16;;;;;;;6.72;1.05;;;23.30;45.30;;;;;;4976311;28;20039;-74
2021/06/28 11:43:55;;;;;;;3.60;1.05;;;23.30;46.40;;;;;;4976528;28;20065;-74
2021/06/28 11:46:45;;;;;;;1.80;0.85;;;23.30;45.90;;;;;;4976561;28;20029;-74
2021/06/28 11:49:21;;;;;;;2.30;1.00;;;23.30;44.90;;;;;;4976619;28;20402;-75
2021/06/28 11:51:48;;;;;;;2.22;1.00;;;23.30;44.70;;;;;;4976201;28;20038;-74
2021/06/28 11:54:20;;;;;;;3.38;0.80;;;23.20;45.00;;;;;;4976029;28;20398;-73
2021/06/28 11:56:51;;;;;;;3.00;1.00;;;23.20;45.90;;;;;;4976235;28;20035;-74
2021/06/28 11:59:25;;;;;;;1.23;0.80;;;23.20;45.90;;;;;;4976042;28;20097;-74
2021/06/28 12:01:57;;;;;;;3.03;1.00;;;23.40;44.90;;;;;;4976156;28;20487;-74
2021/06/28 12:04:34;;;;;;;1.63;0.98;;;23.40;44.70;;;;;;4976093;28;20037;-73
2021/06/28 12:07:02;;;;;;;3.20;0.80;;;23.40;46.20;;;;;;4976048;28;20495;-74
2021/06/28 12:09:29;;;;;;;2.13;0.90;;;23.40;46.60;;;;;;4975602;28;20035;-74
2021/06/28 12:12:16;;;;;;;10.63;1.17;;;23.40;48.10;;;;;;4975877;28;20023;-73
2021/06/28 12:14:49;;;;;;;5.95;1.50;;;23.40;46.80;;;;;;4976072;28;20434;-72
2021/06/28 12:17:23;;;;;;;3.28;1.10;;;23.40;47.10;;;;;;4975803;28;20117;-72
2021/06/28 12:20:01;;;;;;;28.00;1.55;;;23.40;46.90;;;;;;4975930;28;20046;-72
2021/06/28 12:22:30;;;;;;;5.00;1.45;;;23.40;46.60;;;;;;4975701;28;20529;-72
2021/06/28 12:25:10;;;;;;;5.43;1.10;;;23.40;45.20;;;;;;4975771;28;20125;-72
2021/06/28 12:27:38;;;;;;;4.60;1.00;;;23.40;46.00;;;;;;4975754;28;20022;-71
2021/06/28 12:30:10;;;;;;;5.97;1.00;;;23.40;45.40;;;;;;4975993;28;20055;-76
2021/06/28 12:32:50;;;;;;;1.92;0.85;;;23.40;44.80;;;;;;4975392;28;20030;-75
2021/06/28 12:35:22;;;;;;;2.75;1.15;;;23.40;44.00;;;;;;4975552;28;20082;-75
2021/06/28 12:37:51;;;;;;;1.83;0.88;;;23.40;45.40;;;;;;4975535;28;20027;-75
2021/06/28 12:40:32;;;;;;;3.38;1.17;;;23.40;45.80;;;;;;4975582;28;20047;-75
2021/06/28 12:43:08;;;;;;;3.03;0.90;;;23.50;45.80;;;;;;4975409;28;20450;-75
2021/06/28 12:45:43;;;;;;;4.85;0.80;;;23.50;45.60;;;;;;4975356;28;20027;-75
2021/06/28 12:48:15;;;;;;;10.82;0.90;;;23.40;45.60;;;;;;4962914;28;20026;-76
2021/06/28 12:50:41;;;;;;;3.80;0.88;;;23.40;44.70;;;;;;4975216;28;20033;-75
2021/06/28 12:53:16;;;;;;;6.63;1.00;;;23.40;44.70;;;;;;4975029;28;20062;-75
2021/06/28 12:55:43;;;;;;;1.90;0.60;;;23.50;44.50;;;;;;4975020;28;20043;-75
2021/06/28 12:58:15;;;;;;;2.95;0.60;;;23.50;44.00;;;;;;4975509;28;20465;-75
2021/06/28 13:00:49;;;;;;;4.65;1.05;;;23.50;43.90;;;;;;4975324;28;20414;-75
2021/06/28 13:03:20;;;;;;;1.60;0.70;;;23.40;43.10;;;;;;4973696;28;20379;-75
2021/06/28 13:05:49;;;;;;;5.70;0.95;;;23.40;43.10;;;;;;4975020;28;20439;-75
2021/06/28 13:08:20;;;;;;;2.17;0.77;;;23.40;44.30;;;;;;4974914;28;20375;-72
2021/06/28 13:11:08;;;;;;;3.10;1.10;;;23.40;44.20;;;;;;4974875;28;20027;-73
2021/06/28 13:19:06;;;;;;;2.35;0.73;;;23.50;45.00;;;;;;4974802;28;20154;-71
2021/06/28 13:21:35;;;;;;;3.42;0.90;;;23.50;43.50;;;;;;4974691;28;20425;-71
2021/06/28 13:24:02;;;;;;;1.95;1.00;;;23.50;44.90;;;;;;4974709;28;20019;-71
2021/06/28 13:26:35;;;;;;;2.47;0.70;;;23.50;44.50;;;;;;4973534;28;20027;-72
2021/06/28 13:29:10;;;;;;;2.63;1.00;;;23.50;45.20;;;;;;4974113;28;20019;-72
2021/06/28 13:31:54;;;;;;;1.65;0.90;;;23.50;44.30;;;;;;4974076;28;20050;-72
2021/06/28 13:34:21;;;;;;;4.03;0.82;;;23.40;43.60;;;;;;4973123;28;20027;-71